Time;durP1;ratioP1;P1;durP2;ratioP2;P2;SDS_P1;SDS_P2;PMS_P1;PMS_P2;Temp;Humidity;BMP_temperature;BMP_pressure;BME280_temperature;BME280_humidity;BME280_pressure;Samples;Min_cycle;Max_cycle;Signal;HPM_P1;HPM_P2
2022/02/03 00:04:33;;;;;;;52.83;26.17;;;8.90;99.90;;;;;;5053103;28;20079;-67
2022/02/03 00:07:04;;;;;;;57.73;28.20;;;8.90;99.90;;;;;;5053646;28;20044;-67
2022/02/03 00:25:42;;;;;;;46.60;23.90;;;9.00;99.90;;;;;;5052832;28;20040;-68
2022/02/03 00:28:24;;;;;;;50.10;24.63;;;9.00;99.90;;;;;;5052736;28;20029;-68
2022/02/03 00:49:14;;;;;;;47.10;23.47;;;9.00;99.90;;;;;;5052392;28;20029;-68
2022/02/03 00:51:44;;;;;;;51.43;23.60;;;9.00;99.90;;;;;;5052240;28;20040;-68
2022/02/03 00:54:11;;;;;;;50.00;24.20;;;9.00;99.90;;;;;;5052250;28;20021;-67
2022/02/03 00:56:41;;;;;;;48.17;23.97;;;9.00;99.90;;;;;;5034497;28;20075;-68
2022/02/03 00:59:13;;;;;;;49.45;25.10;;;8.90;99.90;;;;;;5052171;28;20040;-68
2022/02/03 01:01:45;;;;;;;51.43;26.50;;;8.90;99.90;;;;;;5052245;28;20505;-68
2022/02/03 01:04:13;;;;;;;50.07;24.57;;;8.90;99.90;;;;;;5052045;28;20029;-68
2022/02/03 01:06:54;;;;;;;48.73;25.20;;;8.90;99.90;;;;;;5051927;28;20112;-68
2022/02/03 01:09:26;;;;;;;50.37;24.87;;;8.90;99.90;;;;;;5051947;28;20025;-68
2022/02/03 01:44:50;;;;;;;44.27;25.37;;;9.00;99.90;;;;;;5051449;28;20033;-68
2022/02/03 01:52:42;;;;;;;44.45;23.77;;;9.00;99.90;;;;;;5051345;28;20025;-68
2022/02/03 01:55:12;;;;;;;48.55;24.33;;;9.00;99.90;;;;;;5051050;28;20470;-68
2022/02/03 01:57:51;;;;;;;43.47;24.60;;;9.00;99.90;;;;;;5051133;28;20021;-68
2022/02/03 02:00:21;;;;;;;42.10;24.17;;;9.00;99.90;;;;;;5051149;28;20046;-68
2022/02/03 02:03:06;;;;;;;42.33;23.13;;;9.00;99.90;;;;;;5051518;28;20056;-68
2022/02/03 02:05:51;;;;;;;42.97;23.50;;;9.00;99.90;;;;;;5033022;28;20035;-67
2022/02/03 02:08:54;;;;;;;40.80;23.60;;;9.00;99.90;;;;;;5050848;28;20500;-68
2022/02/03 02:12:15;;;;;;;40.37;22.47;;;9.10;99.90;;;;;;5051123;28;20044;-69
2022/02/03 02:42:51;;;;;;;43.63;22.60;;;9.00;99.90;;;;;;5050783;28;20033;-68
2022/02/03 02:45:23;;;;;;;40.10;21.13;;;9.00;99.90;;;;;;5050602;28;20129;-68
2022/02/03 02:48:07;;;;;;;44.47;22.63;;;9.00;99.90;;;;;;5050517;28;20044;-68
2022/02/03 02:50:50;;;;;;;46.00;22.70;;;9.00;99.90;;;;;;5050408;28;20436;-68
2022/02/03 02:53:58;;;;;;;50.23;24.03;;;9.00;99.90;;;;;;5050461;28;20111;-68
2022/02/03 03:02:53;;;;;;;47.07;23.07;;;9.10;99.90;;;;;;5050590;28;20346;-68
2022/02/03 03:33:40;;;;;;;45.77;24.23;;;9.00;99.90;;;;;;5050220;28;20116;-68
2022/02/03 03:36:12;;;;;;;51.78;24.55;;;9.10;99.90;;;;;;5035143;28;20100;-68
2022/02/03 03:38:41;;;;;;;50.53;26.23;;;9.10;99.90;;;;;;5053701;28;20032;-67
2022/02/03 03:41:08;;;;;;;51.90;25.23;;;9.10;99.90;;;;;;5035833;28;20036;-66
2022/02/03 03:43:40;;;;;;;47.83;24.53;;;9.10;99.90;;;;;;5053525;28;20056;-68
2022/02/03 03:46:20;;;;;;;42.80;24.17;;;9.10;99.90;;;;;;5053593;28;20092;-68
2022/02/03 03:49:46;;;;;;;40.30;22.93;;;9.10;99.90;;;;;;5053478;28;20020;-68
2022/02/03 03:52:21;;;;;;;40.27;21.20;;;9.10;99.90;;;;;;4991502;28;20046;-68
2022/02/03 03:55:25;;;;;;;38.73;20.30;;;9.10;99.90;;;;;;4991559;28;20042;-68
2022/02/03 04:01:02;;;;;;;33.67;18.77;;;9.10;99.90;;;;;;5053392;28;20101;-68
2022/02/03 04:37:00;;;;;;;23.20;11.77;;;9.00;99.90;;;;;;5052659;28;20039;-68
2022/02/03 04:42:09;;;;;;;19.37;11.07;;;8.90;99.90;;;;;;5052713;28;20385;-68
2022/02/03 04:56:26;;;;;;;18.47;10.37;;;8.90;99.90;;;;;;5053025;28;20079;-68
2022/02/03 05:05:14;;;;;;;17.27;10.10;;;8.90;99.90;;;;;;5051881;28;20029;-67
2022/02/03 05:11:13;;;;;;;16.53;10.37;;;8.90;99.90;;;;;;5051947;28;20040;-68
2022/02/03 05:35:32;;;;;;;11.57;6.67;;;8.80;99.90;;;;;;5051388;28;20389;-68
2022/02/03 05:44:07;;;;;;;12.80;6.20;;;8.90;99.90;;;;;;5051095;28;20037;-68
2022/02/03 06:14:17;;;;;;;10.73;5.60;;;8.70;99.90;;;;;;4969684;28;20498;-74
2022/02/03 06:22:39;;;;;;;12.73;6.95;;;8.70;99.90;;;;;;5050943;28;20028;-73
2022/02/03 06:27:44;;;;;;;13.37;7.13;;;8.80;99.90;;;;;;5051030;28;20040;-74
2022/02/03 06:30:13;;;;;;;11.40;6.67;;;8.80;99.90;;;;;;5050924;28;20037;-74
2022/02/03 06:32:42;;;;;;;13.82;6.90;;;8.80;99.90;;;;;;5051264;28;20109;-74
2022/02/03 06:35:11;;;;;;;13.20;6.97;;;8.80;99.90;;;;;;5050622;28;20079;-74
2022/02/03 06:37:37;;;;;;;10.93;6.63;;;8.70;99.90;;;;;;5033020;28;20120;-74
2022/02/03 06:40:09;;;;;;;11.43;6.70;;;8.70;99.90;;;;;;5033216;28;20033;-74
2022/02/03 06:42:37;;;;;;;12.53;7.37;;;8.70;99.90;;;;;;5050666;28;20470;-74
2022/02/03 06:45:22;;;;;;;13.53;7.93;;;8.70;99.90;;;;;;5050951;28;20031;-74
2022/02/03 06:50:29;;;;;;;15.10;8.77;;;8.70;99.90;;;;;;5050717;28;20520;-74
2022/02/03 06:58:15;;;;;;;14.57;8.17;;;8.60;99.90;;;;;;5050585;28;20035;-74
2022/02/03 07:00:52;;;;;;;19.17;10.27;;;8.60;99.90;;;;;;5050729;28;20029;-74
2022/02/03 07:03:21;;;;;;;17.87;8.13;;;8.60;99.90;;;;;;5050435;28;20486;-74
2022/02/03 07:05:47;;;;;;;14.63;8.73;;;8.50;99.90;;;;;;5050573;28;20040;-74
2022/02/03 07:08:16;;;;;;;14.13;8.27;;;8.50;99.90;;;;;;5032999;28;20033;-73
2022/02/03 07:10:46;;;;;;;16.70;9.10;;;8.50;99.90;;;;;;5036714;28;20029;-73
2022/02/03 07:13:14;;;;;;;18.67;10.03;;;8.50;99.90;;;;;;5036178;28;20068;-74
2022/02/03 07:15:40;;;;;;;18.40;10.00;;;8.50;99.90;;;;;;5036454;28;20025;-73
2022/02/03 07:18:06;;;;;;;17.60;9.00;;;8.40;99.90;;;;;;5036224;28;20440;-74
2022/02/03 07:20:34;;;;;;;18.70;10.20;;;8.50;99.90;;;;;;5036541;28;20037;-74
2022/02/03 07:23:01;;;;;;;20.37;10.07;;;8.40;99.90;;;;;;5054085;28;20072;-74
2022/02/03 07:25:27;;;;;;;18.87;10.20;;;8.50;99.90;;;;;;5036233;28;20044;-74
2022/02/03 07:27:53;;;;;;;21.17;11.07;;;8.50;99.90;;;;;;5036205;28;20040;-74
2022/02/03 07:30:19;;;;;;;16.60;10.37;;;8.50;99.90;;;;;;5054097;28;20083;-74
2022/02/03 07:32:45;;;;;;;18.90;10.73;;;8.50;99.90;;;;;;5036204;28;20481;-74
2022/02/03 07:35:11;;;;;;;20.53;11.63;;;8.50;99.90;;;;;;5035838;28;20040;-74
2022/02/03 07:37:43;;;;;;;19.33;12.13;;;8.50;99.90;;;;;;5053752;28;20071;-74
2022/02/03 07:40:10;;;;;;;20.70;12.60;;;8.50;99.90;;;;;;5036217;28;20319;-75
2022/02/03 07:42:36;;;;;;;22.47;13.30;;;8.40;99.90;;;;;;5053535;28;20024;-75
2022/02/03 07:45:02;;;;;;;28.57;15.20;;;8.50;99.90;;;;;;5053451;28;20029;-74
2022/02/03 07:47:28;;;;;;;33.23;16.40;;;8.50;99.90;;;;;;5053646;28;20036;-74
2022/02/03 07:49:54;;;;;;;26.83;16.00;;;8.50;99.90;;;;;;5035809;28;20037;-74
2022/02/03 07:52:20;;;;;;;23.97;15.60;;;8.50;99.90;;;;;;5035510;28;20032;-74
2022/02/03 07:54:46;;;;;;;23.50;13.77;;;8.40;99.90;;;;;;5053393;28;20061;-74
2022/02/03 07:57:13;;;;;;;22.27;13.07;;;8.40;99.90;;;;;;5053421;28;20025;-74
2022/02/03 07:59:40;;;;;;;26.90;13.17;;;8.50;99.90;;;;;;5019284;28;20032;-74
2022/02/03 08:02:07;;;;;;;24.17;13.30;;;8.50;99.90;;;;;;5053491;28;20036;-74
2022/02/03 08:04:35;;;;;;;22.33;12.23;;;8.40;99.90;;;;;;5035417;28;20056;-75
2022/02/03 08:07:02;;;;;;;24.92;13.05;;;8.50;99.90;;;;;;5035684;28;20546;-74
2022/02/03 08:09:43;;;;;;;20.77;12.07;;;8.50;99.90;;;;;;5053073;28;20040;-74
2022/02/03 08:12:12;;;;;;;22.90;12.23;;;8.50;99.90;;;;;;5053551;28;20032;-74
2022/02/03 08:14:45;;;;;;;21.90;12.27;;;8.50;99.90;;;;;;5052814;28;20044;-74
2022/02/03 08:17:24;;;;;;;23.83;12.27;;;8.50;99.90;;;;;;5053050;28;20335;-74
2022/02/03 08:22:22;;;;;;;21.13;11.90;;;8.50;99.90;;;;;;5034491;28;20043;-74
2022/02/03 08:32:48;;;;;;;19.97;11.60;;;8.50;99.90;;;;;;5053404;28;20032;-73
2022/02/03 08:35:33;;;;;;;;;;;8.50;99.90;;;;;;5035350;28;20025;-74
2022/02/03 08:38:13;;;;;;;21.60;12.17;;;8.50;99.90;;;;;;5034776;28;20369;-73
2022/02/03 08:40:59;;;;;;;26.00;12.63;;;8.50;99.90;;;;;;5052666;28;20036;-73
2022/02/03 08:43:25;;;;;;;20.17;11.83;;;8.50;99.90;;;;;;5052481;28;20033;-74
2022/02/03 08:45:52;;;;;;;25.67;13.47;;;8.50;99.90;;;;;;5052717;28;20041;-73
2022/02/03 08:48:18;;;;;;;19.37;11.47;;;8.50;99.90;;;;;;5034553;28;20120;-73
2022/02/03 08:50:44;;;;;;;22.23;11.73;;;8.50;99.90;;;;;;5052672;28;20370;-73
2022/02/03 08:53:17;;;;;;;19.37;11.33;;;8.60;99.90;;;;;;5052115;28;20043;-73
2022/02/03 09:33:30;;;;;;;30.00;17.73;;;8.60;99.90;;;;;;5051675;28;20041;-73
2022/02/03 09:58:15;;;;;;;25.60;14.33;;;8.60;99.90;;;;;;5051303;28;20025;-73
2022/02/03 10:00:50;;;;;;;24.23;13.85;;;8.60;99.90;;;;;;5051328;28;20565;-74
2022/02/03 10:03:21;;;;;;;25.23;14.30;;;8.60;99.90;;;;;;5051024;28;20067;-74
2022/02/03 10:06:25;;;;;;;25.50;14.00;;;8.60;99.90;;;;;;5051112;28;20036;-74
2022/02/03 10:08:49;;;;;;;20.60;12.10;;;8.70;99.90;;;;;;5046759;28;20049;-74
2022/02/03 10:11:19;;;;;;;21.47;12.30;;;8.70;99.90;;;;;;5050937;28;20113;-73
2022/02/03 10:13:50;;;;;;;21.50;12.53;;;8.70;99.90;;;;;;5050827;28;20052;-74
2022/02/03 10:16:19;;;;;;;17.40;11.07;;;8.70;99.90;;;;;;5050961;28;20033;-73
2022/02/03 10:18:46;;;;;;;15.90;10.60;;;8.70;99.90;;;;;;5033027;28;20448;-73
2022/02/03 10:21:18;;;;;;;15.73;9.70;;;8.80;99.90;;;;;;5050908;28;20040;-74
2022/02/03 10:24:15;;;;;;;15.80;9.00;;;8.70;99.90;;;;;;5050980;28;20111;-73
2022/02/03 10:26:59;;;;;;;14.53;8.60;;;8.70;99.90;;;;;;5051207;28;20033;-73
2022/02/03 10:29:31;;;;;;;12.17;8.30;;;8.70;99.90;;;;;;5050771;28;20114;-74
2022/02/03 10:31:57;;;;;;;17.20;9.53;;;8.70;99.90;;;;;;5051028;28;20083;-73
2022/02/03 10:34:28;;;;;;;15.13;9.97;;;8.70;99.90;;;;;;5050648;28;20036;-74
2022/02/03 10:49:04;;;;;;;10.23;7.03;;;8.80;99.90;;;;;;5054570;28;20508;-73
2022/02/03 10:51:44;;;;;;;10.93;6.90;;;8.80;99.90;;;;;;5053895;28;20052;-74
2022/02/03 10:54:48;;;;;;;11.20;6.83;;;8.80;99.90;;;;;;5054693;28;20115;-74
2022/02/03 11:12:31;;;;;;;8.97;5.70;;;8.80;99.90;;;;;;5036556;28;20059;-73
2022/02/03 11:14:59;;;;;;;8.93;5.33;;;8.80;99.90;;;;;;5054099;28;20382;-73
2022/02/03 11:17:27;;;;;;;8.13;5.13;;;8.80;99.90;;;;;;5036366;28;20385;-73
2022/02/03 11:19:57;;;;;;;7.50;4.60;;;8.80;99.90;;;;;;5036635;28;20056;-73
2022/02/03 11:22:30;;;;;;;9.30;4.83;;;8.80;99.90;;;;;;5054125;28;20029;-73
2022/02/03 11:25:53;;;;;;;10.10;5.00;;;8.80;99.90;;;;;;5054084;28;20040;-73
2022/02/03 11:38:55;;;;;;;9.33;5.40;;;8.60;99.90;;;;;;5053671;28;20079;-74
2022/02/03 11:45:16;;;;;;;10.50;4.93;;;8.60;99.90;;;;;;5053558;28;20466;-74
2022/02/03 12:20:39;;;;;;;9.33;5.57;;;8.30;99.90;;;;;;5052945;28;20025;-71
2022/02/03 12:23:47;;;;;;;9.70;6.00;;;8.30;99.90;;;;;;5053038;28;20071;-71
2022/02/03 12:28:56;;;;;;;8.57;5.47;;;8.30;99.90;;;;;;5053008;28;20367;-71
2022/02/03 12:39:47;;;;;;;11.83;5.77;;;8.20;99.90;;;;;;5052523;28;20025;-71
2022/02/03 12:42:23;;;;;;;12.70;6.70;;;8.20;99.90;;;;;;5052910;28;20056;-71
2022/02/03 12:45:00;;;;;;;12.50;7.43;;;8.20;99.90;;;;;;5052759;28;20044;-71
2022/02/03 12:47:26;;;;;;;14.53;7.00;;;8.20;99.90;;;;;;5052859;28;20417;-71
2022/02/03 12:49:52;;;;;;;14.77;6.70;;;8.10;99.90;;;;;;5052641;28;20036;-71
2022/02/03 12:52:22;;;;;;;11.53;6.67;;;8.10;99.90;;;;;;5034357;28;20067;-71
2022/02/03 12:54:47;;;;;;;10.90;6.72;;;8.10;99.90;;;;;;5052299;28;20028;-70
2022/02/03 12:57:25;;;;;;;15.30;6.73;;;8.10;99.90;;;;;;5052204;28;20390;-70
2022/02/03 13:00:15;;;;;;;10.30;6.80;;;8.20;99.90;;;;;;5052387;28;20060;-71
2022/02/03 13:03:00;;;;;;;13.80;7.80;;;8.20;99.90;;;;;;5052154;28;20128;-71
2022/02/03 13:05:29;;;;;;;15.87;8.13;;;8.20;99.90;;;;;;5052159;28;20036;-71
2022/02/03 13:07:57;;;;;;;10.82;6.57;;;8.20;99.90;;;;;;5051990;28;20397;-71
2022/02/03 13:10:26;;;;;;;13.23;6.63;;;8.20;99.90;;;;;;5052067;28;20033;-71
2022/02/03 13:13:06;;;;;;;11.75;6.60;;;8.20;99.90;;;;;;5051737;28;20036;-70
2022/02/03 13:15:39;;;;;;;11.67;6.47;;;8.20;99.90;;;;;;5052023;28;20056;-71
2022/02/03 13:18:12;;;;;;;15.20;6.40;;;8.20;99.90;;;;;;5052334;28;20059;-70
2022/02/03 13:20:46;;;;;;;10.60;6.10;;;8.30;99.90;;;;;;5051985;28;20116;-71
2022/02/03 13:23:21;;;;;;;13.07;6.13;;;8.40;99.90;;;;;;5033946;28;20036;-69
2022/02/03 13:31:24;;;;;;;9.98;5.30;;;8.50;99.90;;;;;;5051568;28;20397;-71
2022/02/03 13:33:58;;;;;;;13.17;5.80;;;8.50;99.90;;;;;;5033797;28;20043;-71
2022/02/03 13:36:32;;;;;;;13.17;5.77;;;8.50;99.90;;;;;;5051580;28;20033;-71
2022/02/03 13:41:35;;;;;;;10.47;5.27;;;8.50;99.90;;;;;;5051758;28;20537;-71
2022/02/03 13:44:10;;;;;;;11.13;5.63;;;8.50;99.90;;;;;;5051316;28;20037;-70
2022/02/03 13:46:38;;;;;;;9.43;5.27;;;8.50;99.90;;;;;;5051663;28;20059;-70
2022/02/03 13:49:16;;;;;;;12.18;6.00;;;8.60;99.90;;;;;;5051639;28;20370;-71
2022/02/03 13:51:44;;;;;;;9.23;5.27;;;8.60;99.90;;;;;;5033530;28;20035;-70
2022/02/03 13:54:47;;;;;;;12.63;6.07;;;8.60;99.90;;;;;;5051413;28;20025;-71
2022/02/03 14:22:17;;;;;;;;;;;8.60;99.90;;;;;;5022920;28;20123;-71
2022/02/03 14:27:30;;;;;;;9.47;5.07;;;8.60;99.90;;;;;;5050969;28;20473;-71
2022/02/03 14:30:04;;;;;;;11.18;5.93;;;8.60;99.90;;;;;;5050811;28;20057;-71
2022/02/03 14:32:37;;;;;;;11.40;5.33;;;8.60;99.90;;;;;;5050861;28;20129;-71
2022/02/03 14:35:06;;;;;;;9.17;5.47;;;8.60;99.90;;;;;;5050977;28;20454;-71
2022/02/03 14:42:24;;;;;;;9.57;5.07;;;8.60;99.90;;;;;;5050930;28;20117;-71
2022/02/03 14:44:51;;;;;;;10.63;5.77;;;8.60;99.90;;;;;;5050737;28;20025;-71
2022/02/03 14:47:18;;;;;;;10.53;5.40;;;8.60;99.90;;;;;;5050863;28;20032;-70
2022/02/03 14:49:45;;;;;;;12.23;6.30;;;8.50;99.90;;;;;;5050920;28;20121;-71
2022/02/03 14:52:15;;;;;;;10.90;5.93;;;8.50;99.90;;;;;;5050762;28;20065;-70
2022/02/03 14:58:18;;;;;;;11.77;6.10;;;8.60;99.90;;;;;;5050672;28;20033;-71
2022/02/03 15:00:13;;;;;;;13.00;5.97;;;8.60;99.90;;;;;;5019152;28;20033;-71
2022/02/03 15:02:39;;;;;;;11.60;5.77;;;8.60;99.90;;;;;;5050756;28;20115;-71
2022/02/03 15:05:09;;;;;;;10.23;6.33;;;8.60;99.90;;;;;;5050711;28;20449;-70
2022/02/03 15:07:40;;;;;;;14.27;6.60;;;8.60;99.90;;;;;;5032838;28;20464;-71
2022/02/03 15:15:02;;;;;;;14.40;7.10;;;8.50;99.90;;;;;;5050523;28;20033;-71
2022/02/03 15:17:29;;;;;;;14.37;7.53;;;8.50;99.90;;;;;;5050615;28;20033;-71
2022/02/03 15:19:57;;;;;;;14.97;8.43;;;8.50;99.90;;;;;;5033030;28;20116;-71
2022/02/03 15:22:22;;;;;;;16.87;9.00;;;8.50;99.90;;;;;;5033255;28;20098;-71
2022/02/03 15:24:48;;;;;;;18.60;9.00;;;8.50;99.90;;;;;;5016530;28;20041;-70
2022/02/03 15:27:17;;;;;;;15.23;7.83;;;8.50;99.90;;;;;;5033002;28;20044;-71
2022/02/03 15:29:49;;;;;;;15.60;7.53;;;8.50;99.90;;;;;;5051599;28;20108;-71
2022/02/03 15:32:15;;;;;;;13.77;6.97;;;8.50;99.90;;;;;;5054482;28;20025;-70
2022/02/03 15:34:42;;;;;;;17.07;7.13;;;8.50;99.90;;;;;;5054666;28;20029;-71
2022/02/03 15:37:14;;;;;;;14.00;7.00;;;8.40;99.90;;;;;;5054343;28;20056;-71
2022/02/03 15:39:53;;;;;;;14.57;7.33;;;8.40;99.90;;;;;;5036629;28;20041;-71
2022/02/03 15:42:25;;;;;;;14.53;7.27;;;8.40;99.90;;;;;;5020055;28;20040;-71
2022/02/03 15:44:54;;;;;;;14.97;7.40;;;8.40;99.90;;;;;;5036254;28;20504;-71
2022/02/03 15:47:46;;;;;;;11.95;6.78;;;8.40;99.90;;;;;;5054066;28;20029;-71
2022/02/03 15:50:38;;;;;;;17.13;6.70;;;8.30;99.90;;;;;;5053626;28;20048;-70
2022/02/03 16:17:30;;;;;;;16.73;7.07;;;8.30;99.90;;;;;;5035737;28;20029;-71
2022/02/03 16:20:11;;;;;;;13.37;6.50;;;8.40;99.90;;;;;;5053422;28;20031;-71
2022/02/03 16:22:47;;;;;;;12.80;6.57;;;8.30;99.90;;;;;;5053486;28;20037;-71
2022/02/03 16:26:19;;;;;;;16.70;6.93;;;8.40;99.90;;;;;;5053387;28;20494;-71
2022/02/03 16:52:46;;;;;;;15.23;7.60;;;8.30;99.90;;;;;;5052715;28;20112;-70
2022/02/03 16:55:16;;;;;;;14.47;7.50;;;8.20;99.90;;;;;;5052987;28;20090;-71
2022/02/03 16:57:42;;;;;;;16.13;8.27;;;8.20;99.90;;;;;;5053149;28;20021;-71
2022/02/03 17:00:14;;;;;;;21.20;9.73;;;8.20;99.90;;;;;;5052443;28;20075;-71
2022/02/03 17:02:41;;;;;;;16.13;7.97;;;8.20;99.90;;;;;;5052902;28;20033;-71
2022/02/03 17:05:08;;;;;;;17.40;9.10;;;8.20;99.90;;;;;;5052674;28;20031;-71
2022/02/03 17:07:34;;;;;;;14.57;8.70;;;8.20;99.90;;;;;;5052840;28;20087;-71
2022/02/03 17:10:00;;;;;;;22.00;9.10;;;8.20;99.90;;;;;;5052527;28;20032;-71
2022/02/03 17:12:26;;;;;;;17.37;9.20;;;8.30;99.90;;;;;;5052534;28;20029;-71
2022/02/03 17:14:52;;;;;;;15.07;8.17;;;8.20;99.90;;;;;;5052384;28;20090;-71
2022/02/03 17:17:20;;;;;;;17.70;8.50;;;8.20;99.90;;;;;;5053039;28;20025;-71
2022/02/03 17:19:48;;;;;;;16.13;8.30;;;8.30;99.90;;;;;;5034459;28;20040;-71
2022/02/03 17:22:15;;;;;;;14.37;8.17;;;8.20;99.90;;;;;;5034612;28;20051;-71
2022/02/03 17:24:49;;;;;;;14.37;8.50;;;8.20;99.90;;;;;;5052322;28;20028;-71
2022/02/03 17:30:11;;;;;;;15.83;7.47;;;8.20;99.90;;;;;;5052419;28;20039;-71
2022/02/03 18:06:17;;;;;;;11.43;7.47;;;8.10;99.90;;;;;;4972861;28;20058;-67
2022/02/03 18:11:19;;;;;;;14.10;8.53;;;8.10;99.90;;;;;;4972658;28;20037;-67
2022/02/03 18:25:54;;;;;;;19.33;9.10;;;8.10;99.90;;;;;;4972506;28;20050;-68
2022/02/03 18:30:45;;;;;;;16.10;8.83;;;8.00;99.90;;;;;;4972952;28;20089;-69
2022/02/03 18:33:45;;;;;;;16.37;9.77;;;8.00;99.90;;;;;;4972813;28;20031;-67
2022/02/03 18:36:14;;;;;;;19.05;9.95;;;8.00;99.90;;;;;;4972345;28;20023;-68
2022/02/03 18:52:10;;;;;;;15.97;9.73;;;7.90;99.90;;;;;;4971421;28;20035;-68
2022/02/03 19:12:30;;;;;;;21.97;11.43;;;7.90;99.90;;;;;;4976061;28;20035;-68
2022/02/03 19:21:03;;;;;;;22.27;12.10;;;7.90;99.90;;;;;;4976291;28;20027;-68
2022/02/03 20:07:31;;;;;;;28.13;17.80;;;7.70;99.90;;;;;;4974325;28;20118;-68
2022/02/03 20:12:23;;;;;;;32.87;19.57;;;7.80;99.90;;;;;;4975400;28;20060;-68
2022/02/03 20:14:50;;;;;;;31.93;18.27;;;7.80;99.90;;;;;;4975285;28;20030;-68
2022/02/03 20:17:19;;;;;;;29.93;17.40;;;7.80;99.90;;;;;;4973637;28;20038;-68
2022/02/03 20:19:47;;;;;;;32.58;18.40;;;7.80;99.90;;;;;;4975972;28;20037;-67
2022/02/03 20:22:13;;;;;;;29.23;17.03;;;7.70;99.90;;;;;;4975716;28;20035;-68
2022/02/03 20:24:40;;;;;;;29.00;17.67;;;7.70;99.90;;;;;;4976209;28;20114;-68
2022/02/03 20:27:05;;;;;;;28.83;18.63;;;7.80;99.90;;;;;;4975191;28;20026;-68
2022/02/03 20:29:31;;;;;;;27.20;16.37;;;7.80;99.90;;;;;;4975086;28;20049;-67
2022/02/03 20:31:57;;;;;;;28.27;15.93;;;7.80;99.90;;;;;;4975018;28;20443;-68
2022/02/03 20:34:23;;;;;;;28.17;16.53;;;7.80;99.90;;;;;;4975230;28;20081;-68
2022/02/03 20:36:49;;;;;;;29.53;17.73;;;7.80;99.90;;;;;;4974665;28;20027;-68
2022/02/03 20:39:15;;;;;;;30.37;18.13;;;7.80;99.90;;;;;;4974788;28;20082;-68
2022/02/03 20:41:41;;;;;;;30.87;18.73;;;7.80;99.90;;;;;;4974784;28;20042;-68
2022/02/03 20:44:09;;;;;;;31.83;18.13;;;7.80;99.90;;;;;;4974595;28;20043;-68
2022/02/03 20:46:36;;;;;;;28.17;17.53;;;7.80;99.90;;;;;;4974660;28;20126;-67
2022/02/03 20:49:03;;;;;;;29.80;18.03;;;7.80;99.90;;;;;;4974942;28;20046;-68
2022/02/03 20:51:30;;;;;;;30.73;18.13;;;7.80;99.90;;;;;;4975077;28;20399;-69
2022/02/03 20:53:56;;;;;;;31.30;18.43;;;7.80;99.90;;;;;;4973010;28;20067;-68
2022/02/03 20:56:22;;;;;;;28.33;17.17;;;7.80;99.90;;;;;;4974497;28;20216;-68
2022/02/03 20:58:50;;;;;;;28.80;17.17;;;7.80;99.90;;;;;;4974391;28;20088;-68
2022/02/03 21:01:24;;;;;;;28.37;17.63;;;7.80;99.90;;;;;;4974310;28;20035;-68
2022/02/03 21:03:51;;;;;;;27.83;17.07;;;7.80;99.90;;;;;;4974095;28;20402;-67
2022/02/03 21:06:18;;;;;;;29.53;17.83;;;7.80;99.90;;;;;;4974511;28;20039;-68
2022/02/03 21:08:49;;;;;;;28.17;17.13;;;7.80;99.90;;;;;;4973034;28;20054;-68
2022/02/03 21:11:16;;;;;;;31.27;18.67;;;7.90;99.90;;;;;;4973991;28;20109;-68
2022/02/03 21:13:42;;;;;;;32.10;18.80;;;7.80;99.90;;;;;;4973992;28;20031;-69
2022/02/03 21:16:09;;;;;;;30.07;17.70;;;7.80;99.90;;;;;;4972601;28;20487;-66
2022/02/03 21:18:39;;;;;;;32.30;19.57;;;7.90;99.90;;;;;;4973623;28;20038;-66
2022/02/03 21:21:06;;;;;;;33.17;18.83;;;7.80;99.90;;;;;;4973871;28;20064;-69
2022/02/03 21:23:32;;;;;;;34.23;19.37;;;7.90;99.90;;;;;;4973419;28;20037;-66
2022/02/03 21:26:00;;;;;;;30.57;18.27;;;7.80;99.90;;;;;;4973749;28;20031;-66
2022/02/03 21:28:29;;;;;;;33.83;19.50;;;7.80;99.90;;;;;;4973937;28;20031;-66
2022/02/03 21:30:57;;;;;;;30.83;19.07;;;7.90;99.90;;;;;;4973413;28;20095;-66
2022/02/03 21:33:28;;;;;;;35.03;20.83;;;7.90;99.90;;;;;;4973511;28;20019;-66
2022/02/03 21:35:57;;;;;;;31.73;18.90;;;7.90;99.90;;;;;;4974068;28;20564;-66
2022/02/03 21:38:23;;;;;;;31.92;19.02;;;7.90;99.90;;;;;;4973836;28;20115;-66
2022/02/03 21:40:50;;;;;;;32.93;19.07;;;7.80;99.90;;;;;;4973513;28;20085;-66
2022/02/03 21:43:16;;;;;;;36.00;19.87;;;7.80;99.90;;;;;;4973497;28;20034;-66
2022/02/03 21:45:42;;;;;;;34.37;20.13;;;7.80;99.90;;;;;;4972143;28;20035;-66
2022/02/03 21:48:08;;;;;;;35.43;19.70;;;7.90;99.90;;;;;;4973483;28;20058;-66
2022/02/03 21:50:38;;;;;;;32.00;20.13;;;7.90;99.90;;;;;;4973301;28;20511;-66
2022/02/03 21:53:14;;;;;;;32.20;20.10;;;8.00;99.90;;;;;;4973133;28;20035;-66
2022/02/03 21:55:42;;;;;;;34.13;19.43;;;7.90;99.90;;;;;;4988424;28;20035;-66
2022/02/03 21:58:08;;;;;;;30.70;18.73;;;7.90;99.90;;;;;;4972050;28;20117;-66
2022/02/03 22:00:34;;;;;;;29.03;17.20;;;7.90;99.90;;;;;;4972189;28;20587;-66
2022/02/03 22:03:00;;;;;;;32.47;18.23;;;7.90;99.90;;;;;;4973394;28;20102;-67
2022/02/03 22:05:28;;;;;;;26.23;16.97;;;7.80;99.90;;;;;;4973036;28;20037;-67
2022/02/03 22:07:54;;;;;;;30.07;17.10;;;7.80;99.90;;;;;;4973243;28;20031;-67
2022/02/03 22:10:21;;;;;;;26.97;17.03;;;7.80;99.90;;;;;;4973651;28;20129;-66
2022/02/03 22:12:49;;;;;;;31.07;17.53;;;7.80;99.90;;;;;;4973079;28;20023;-67
2022/02/03 22:15:16;;;;;;;29.87;17.47;;;7.80;99.90;;;;;;4972895;28;20472;-68
2022/02/03 22:17:42;;;;;;;30.90;17.50;;;7.80;99.90;;;;;;4972930;28;20065;-67
2022/02/03 22:20:17;;;;;;;28.77;17.10;;;7.80;99.90;;;;;;4973063;28;20118;-67
2022/02/03 22:39:04;;;;;;;27.60;16.60;;;7.90;99.90;;;;;;4972696;28;20062;-67
2022/02/03 22:44:41;;;;;;;29.53;17.33;;;7.80;99.90;;;;;;4975157;28;20051;-67
2022/02/03 22:49:36;;;;;;;28.60;17.15;;;7.80;99.90;;;;;;4975380;28;20035;-67
2022/02/03 22:52:06;;;;;;;30.17;18.40;;;7.80;99.90;;;;;;4976678;28;20029;-67
2022/02/03 22:54:32;;;;;;;29.87;17.80;;;7.80;99.90;;;;;;4976514;28;20468;-67
2022/02/03 22:56:58;;;;;;;28.63;18.57;;;7.90;99.90;;;;;;4976582;28;20031;-66
2022/02/03 23:02:00;;;;;;;30.57;17.53;;;7.80;99.90;;;;;;4976508;28;20376;-67
2022/02/03 23:04:26;;;;;;;28.77;18.20;;;7.80;99.90;;;;;;4976295;28;20054;-67
2022/02/03 23:06:56;;;;;;;31.80;18.70;;;7.80;99.90;;;;;;4976356;28;20062;-66
2022/02/03 23:17:18;;;;;;;29.63;17.92;;;7.80;99.90;;;;;;4976049;28;20031;-67
2022/02/03 23:22:25;;;;;;;30.03;18.63;;;7.80;99.90;;;;;;4976221;28;20035;-66
2022/02/03 23:24:53;;;;;;;29.13;18.50;;;7.80;99.90;;;;;;4990803;28;20031;-66
2022/02/03 23:29:46;;;;;;;30.37;18.47;;;7.80;99.90;;;;;;4974594;28;20479;-67
2022/02/03 23:32:13;;;;;;;28.80;17.67;;;7.90;99.90;;;;;;4976005;28;20035;-66
2022/02/03 23:34:42;;;;;;;29.63;18.67;;;7.90;99.90;;;;;;4975747;28;20086;-66
2022/02/03 23:37:08;;;;;;;29.90;18.35;;;7.80;99.90;;;;;;4975688;28;20034;-66
